Time,TemperatureF,DewpointF,PressureIn,WindDirection,WindDirectionDegrees,WindSpeedMPH,WindSpeedGustMPH,Humidity,HourlyPrecipIn,Conditions,Clouds,dailyrainin,SoftwareType,DateUTC
2013-08-16 00:12:00,58.0,53.0,30.05,SW,223,3.0,5.0,84,0.00,,,0.00,weatherlink.com 1.10,2013-08-16 04:12:00,
2013-08-16 00:27:00,57.1,53.0,30.05,South,186,0.0,3.0,86,0.00,,,0.00,weatherlink.com 1.10,2013-08-16 04:27:00,
2013-08-16 00:42:00,56.3,53.0,30.05,SE,139,2.0,4.0,88,0.00,,,0.00,weatherlink.com 1.10,2013-08-16 04:42:00,
2013-08-16 00:57:00,56.5,53.0,30.05,SE,136,0.0,2.0,87,0.00,,,0.00,weatherlink.com 1.10,2013-08-16 04:57:00,
2013-08-16 01:12:00,56.2,53.0,30.05,SE,136,0.0,1.0,88,0.00,,,0.00,weatherlink.com 1.10,2013-08-16 05:12:00,
2013-08-16 01:27:00,55.3,52.0,30.05,SSW,195,4.0,4.0,88,0.00,,,0.00,weatherlink.com 1.10,2013-08-16 05:27:00,
2013-08-16 01:42:00,54.5,52.0,30.05,South,169,1.0,2.0,90,0.00,,,0.00,weatherlink.com 1.10,2013-08-16 05:42:00,
2013-08-16 01:57:00,54.5,52.0,30.05,SSE,159,1.0,2.0,91,0.00,,,0.00,weatherlink.com 1.10,2013-08-16 05:57:00,
2013-08-16 02:12:00,54.7,52.0,30.05,SSE,157,0.0,3.0,91,0.00,,,0.00,weatherlink.com 1.10,2013-08-16 06:12:00,
2013-08-16 02:27:00,54.3,52.0,30.05,SSE,168,0.0,3.0,91,0.00,,,0.00,weatherlink.com 1.10,2013-08-16 06:27:00,
2013-08-16 02:42:00,54.4,52.0,30.05,South,177,3.0,4.0,91,0.00,,,0.00,weatherlink.com 1.10,2013-08-16 06:42:00,
2013-08-16 02:57:00,54.1,52.0,30.05,South,182,0.0,4.0,91,0.00,,,0.00,weatherlink.com 1.10,2013-08-16 06:57:00,
2013-08-16 03:12:00,54.5,52.0,30.05,SW,219,3.0,5.0,91,0.00,,,0.00,weatherlink.com 1.10,2013-08-16 07:12:00,
2013-08-16 03:27:00,55.2,52.0,30.06,SW,229,1.0,3.0,90,0.00,,,0.00,weatherlink.com 1.10,2013-08-16 07:27:00,
2013-08-16 03:42:00,55.2,52.0,30.06,SW,229,2.0,4.0,90,0.00,,,0.00,weatherlink.com 1.10,2013-08-16 07:42:00,
2013-08-16 03:57:00,54.6,52.0,30.06,WSW,244,3.0,3.0,91,0.00,,,0.00,weatherlink.com 1.10,2013-08-16 07:57:00,
2013-08-16 04:12:00,54.6,52.0,30.06,WSW,248,1.0,3.0,91,0.00,,,0.00,weatherlink.com 1.10,2013-08-16 08:12:00,
2013-08-16 04:27:00,54.3,52.0,30.06,WSW,246,0.0,2.0,91,0.00,,,0.00,weatherlink.com 1.10,2013-08-16 08:27:00,
2013-08-16 04:42:00,53.1,51.0,30.06,WNW,294,1.0,3.0,91,0.00,,,0.00,weatherlink.com 1.10,2013-08-16 08:42:00,
2013-08-16 04:57:00,52.7,51.0,30.07,WSW,254,2.0,3.0,93,0.00,,,0.00,weatherlink.com 1.10,2013-08-16 08:57:00,
2013-08-16 05:12:00,52.1,50.0,30.07,West,273,0.0,2.0,92,0.00,,,0.00,weatherlink.com 1.10,2013-08-16 09:12:00,
2013-08-16 05:27:00,51.2,49.0,30.07,West,271,0.0,1.0,93,0.00,,,0.00,weatherlink.com 1.10,2013-08-16 09:27:00,
2013-08-16 05:42:00,51.1,50.0,30.08,West,264,0.0,2.0,94,0.00,,,0.00,weatherlink.com 1.10,2013-08-16 09:42:00,
2013-08-16 05:57:00,50.8,49.0,30.08,West,264,0.0,0.0,94,0.00,,,0.00,weatherlink.com 1.10,2013-08-16 09:57:00,
2013-08-16 06:12:00,50.3,49.0,30.09,West,264,0.0,1.0,94,0.00,,,0.00,weatherlink.com 1.10,2013-08-16 10:12:00,
2013-08-16 06:27:00,50.1,49.0,30.09,West,264,1.0,1.0,95,0.00,,,0.00,weatherlink.com 1.10,2013-08-16 10:27:00,
2013-08-16 06:42:00,50.8,50.0,30.09,WSW,246,2.0,3.0,95,0.00,,,0.00,weatherlink.com 1.10,2013-08-16 10:42:00,
2013-08-16 06:58:00,50.6,49.0,30.09,West,278,0.0,2.0,95,0.00,,,0.00,weatherlink.com 1.10,2013-08-16 10:58:00,
2013-08-16 07:13:00,50.9,50.0,30.10,West,278,1.0,1.0,95,0.00,,,0.00,weatherlink.com 1.10,2013-08-16 11:13:00,
2013-08-16 07:28:00,52.3,51.0,30.10,West,277,0.0,0.0,95,0.00,,,0.00,weatherlink.com 1.10,2013-08-16 11:28:00,
2013-08-16 07:43:00,53.5,52.0,30.10,WSW,256,0.0,2.0,94,0.00,,,0.00,weatherlink.com 1.10,2013-08-16 11:43:00,
2013-08-16 07:58:00,55.2,54.0,30.11,WSW,257,0.0,1.0,95,0.00,,,0.00,weatherlink.com 1.10,2013-08-16 11:58:00,
2013-08-16 08:13:00,57.8,56.0,30.11,West,270,2.0,2.0,92,0.00,,,0.00,weatherlink.com 1.10,2013-08-16 12:13:00,
2013-08-16 08:28:00,58.5,55.0,30.11,NW,315,2.0,3.0,88,0.00,,,0.00,weatherlink.com 1.10,2013-08-16 12:28:00,
2013-08-16 08:43:00,59.1,55.0,30.12,NNW,331,3.0,4.0,87,0.00,,,0.00,weatherlink.com 1.10,2013-08-16 12:43:00,
2013-08-16 08:58:00,59.5,56.0,30.12,NNW,333,3.0,4.0,87,0.00,,,0.00,weatherlink.com 1.10,2013-08-16 12:58:00,
2013-08-16 09:13:00,60.2,56.0,30.12,North,350,4.0,5.0,86,0.00,,,0.00,weatherlink.com 1.10,2013-08-16 13:13:00,
2013-08-16 09:28:00,60.3,56.0,30.12,NNE,26,3.0,5.0,86,0.00,,,0.00,weatherlink.com 1.10,2013-08-16 13:28:00,
2013-08-16 09:43:00,60.7,56.0,30.13,NNW,336,3.0,4.0,83,0.00,,,0.00,weatherlink.com 1.10,2013-08-16 13:43:00,
2013-08-16 09:58:00,61.1,56.0,30.13,NNE,24,4.0,4.0,84,0.00,,,0.00,weatherlink.com 1.10,2013-08-16 13:58:00,
2013-08-16 10:13:00,61.2,56.0,30.13,NNE,23,5.0,5.0,84,0.00,,,0.00,weatherlink.com 1.10,2013-08-16 14:13:00,
2013-08-16 10:28:00,61.3,56.0,30.13,North,350,3.0,5.0,83,0.00,,,0.00,weatherlink.com 1.10,2013-08-16 14:28:00,
2013-08-16 10:43:00,60.5,56.0,30.14,NE,51,4.0,5.0,85,0.00,,,0.00,weatherlink.com 1.10,2013-08-16 14:43:00,
2013-08-16 10:58:00,61.3,57.0,30.14,NNW,343,3.0,5.0,84,0.00,,,0.00,weatherlink.com 1.10,2013-08-16 14:58:00,
2013-08-16 11:13:00,61.1,56.0,30.14,NNW,336,4.0,5.0,84,0.00,,,0.00,weatherlink.com 1.10,2013-08-16 15:13:00,
2013-08-16 11:28:00,60.6,56.0,30.14,NNW,329,3.0,5.0,84,0.00,,,0.00,weatherlink.com 1.10,2013-08-16 15:28:00,
2013-08-16 11:43:00,60.6,56.0,30.14,NNW,342,3.0,5.0,85,0.00,,,0.00,weatherlink.com 1.10,2013-08-16 15:43:00,
2013-08-16 11:58:00,62.0,57.0,30.14,NW,317,3.0,5.0,84,0.00,,,0.00,weatherlink.com 1.10,2013-08-16 15:58:00,
2013-08-16 12:13:00,62.5,57.0,30.14,NNE,21,3.0,5.0,83,0.00,,,0.00,weatherlink.com 1.10,2013-08-16 16:13:00,
2013-08-16 12:28:00,61.8,57.0,30.14,NW,323,3.0,5.0,84,0.00,,,0.00,weatherlink.com 1.10,2013-08-16 16:28:00,
2013-08-16 12:43:00,61.8,57.0,30.14,NW,325,3.0,5.0,85,0.00,,,0.00,weatherlink.com 1.10,2013-08-16 16:43:00,
2013-08-16 12:58:00,62.2,58.0,30.14,NNW,344,3.0,5.0,85,0.00,,,0.00,weatherlink.com 1.10,2013-08-16 16:58:00,
2013-08-16 13:13:00,63.0,58.0,30.14,NW,317,4.0,5.0,83,0.00,,,0.00,weatherlink.com 1.10,2013-08-16 17:13:00,
2013-08-16 13:28:00,63.9,59.0,30.14,NNE,27,2.0,4.0,84,0.00,,,0.00,weatherlink.com 1.10,2013-08-16 17:28:00,
2013-08-16 13:43:00,65.2,59.0,30.14,NNE,14,3.0,5.0,81,0.00,,,0.00,weatherlink.com 1.10,2013-08-16 17:43:00,
2013-08-16 13:58:00,65.6,58.0,30.14,NNW,336,3.0,5.0,75,0.00,,,0.00,weatherlink.com 1.10,2013-08-16 17:58:00,
2013-08-16 14:13:00,65.7,59.0,30.13,NE,48,4.0,5.0,80,0.00,,,0.00,weatherlink.com 1.10,2013-08-16 18:13:00,
2013-08-16 14:28:00,67.2,59.0,30.13,NNW,340,5.0,6.0,74,0.00,,,0.00,weatherlink.com 1.10,2013-08-16 18:28:00,
2013-08-16 14:43:00,68.3,59.0,30.13,North,9,3.0,5.0,73,0.00,,,0.00,weatherlink.com 1.10,2013-08-16 18:43:00,
2013-08-16 14:58:00,67.8,59.0,30.13,North,350,3.0,5.0,74,0.00,,,0.00,weatherlink.com 1.10,2013-08-16 18:58:00,
2013-08-16 15:13:00,67.5,59.0,30.13,NW,323,3.0,5.0,75,0.00,,,0.00,weatherlink.com 1.10,2013-08-16 19:13:00,
2013-08-16 15:28:00,68.3,59.0,30.12,NNW,328,4.0,5.0,72,0.00,,,0.00,weatherlink.com 1.10,2013-08-16 19:28:00,
2013-08-16 15:43:00,69.2,60.0,30.12,NW,326,3.0,5.0,72,0.00,,,0.00,weatherlink.com 1.10,2013-08-16 19:43:00,
2013-08-16 15:58:00,70.5,61.0,30.12,NW,325,2.0,4.0,71,0.00,,,0.00,weatherlink.com 1.10,2013-08-16 19:58:00,
2013-08-16 16:13:00,70.3,58.0,30.12,NNW,337,2.0,4.0,65,0.00,,,0.00,weatherlink.com 1.10,2013-08-16 20:13:00,
2013-08-16 16:28:00,73.1,60.0,30.12,NE,46,2.0,4.0,64,0.00,,,0.00,weatherlink.com 1.10,2013-08-16 20:28:00,
2013-08-16 16:43:00,72.6,59.0,30.12,NW,310,1.0,5.0,62,0.00,,,0.00,weatherlink.com 1.10,2013-08-16 20:43:00,
2013-08-16 16:58:00,73.1,57.0,30.12,NW,306,0.0,5.0,57,0.00,,,0.00,weatherlink.com 1.10,2013-08-16 20:58:00,
2013-08-16 17:13:00,74.8,54.0,30.12,West,259,5.0,10.0,48,0.00,,,0.00,weatherlink.com 1.10,2013-08-16 21:13:00,
2013-08-16 17:28:00,74.9,52.0,30.12,SW,223,7.0,9.0,45,0.00,,,0.00,weatherlink.com 1.10,2013-08-16 21:28:00,
2013-08-16 17:43:00,74.4,50.0,30.12,SW,227,3.0,10.0,43,0.00,,,0.00,weatherlink.com 1.10,2013-08-16 21:43:00,
2013-08-16 17:58:00,74.2,52.0,30.12,WSW,239,1.0,7.0,46,0.00,,,0.00,weatherlink.com 1.10,2013-08-16 21:58:00,
2013-08-16 18:13:00,74.1,51.0,30.12,SSW,205,1.0,9.0,44,0.00,,,0.00,weatherlink.com 1.10,2013-08-16 22:13:00,
2013-08-16 18:28:00,73.6,50.0,30.12,SSW,205,3.0,10.0,43,0.00,,,0.00,weatherlink.com 1.10,2013-08-16 22:28:00,
2013-08-16 18:43:00,73.8,51.0,30.13,SSW,194,5.0,8.0,45,0.00,,,0.00,weatherlink.com 1.10,2013-08-16 22:43:00,
2013-08-16 18:58:00,72.8,51.0,30.13,South,184,2.0,7.0,46,0.00,,,0.00,weatherlink.com 1.10,2013-08-16 22:58:00,
2013-08-16 19:13:00,72.2,51.0,30.13,South,173,2.0,5.0,47,0.00,,,0.00,weatherlink.com 1.10,2013-08-16 23:13:00,
2013-08-16 19:28:00,71.4,51.0,30.13,SSW,208,2.0,5.0,49,0.00,,,0.00,weatherlink.com 1.10,2013-08-16 23:28:00,
2013-08-16 19:43:00,70.4,51.0,30.13,SSW,201,3.0,6.0,51,0.00,,,0.00,weatherlink.com 1.10,2013-08-16 23:43:00,
2013-08-16 19:58:00,69.2,52.0,30.13,South,186,2.0,4.0,54,0.00,,,0.00,weatherlink.com 1.10,2013-08-16 23:58:00,
2013-08-16 20:14:00,67.5,51.0,30.13,SSW,194,2.0,4.0,56,0.00,,,0.00,weatherlink.com 1.10,2013-08-17 00:14:00,
2013-08-16 20:29:00,66.2,52.0,30.14,SSW,196,1.0,4.0,60,0.00,,,0.00,weatherlink.com 1.10,2013-08-17 00:29:00,
2013-08-16 20:44:00,64.7,51.0,30.14,South,184,2.0,3.0,61,0.00,,,0.00,weatherlink.com 1.10,2013-08-17 00:44:00,
2013-08-16 20:59:00,63.7,51.0,30.14,South,180,0.0,2.0,64,0.00,,,0.00,weatherlink.com 1.10,2013-08-17 00:59:00,
2013-08-16 21:14:00,62.9,50.0,30.14,SSW,201,3.0,5.0,63,0.00,,,0.00,weatherlink.com 1.10,2013-08-17 01:14:00,
2013-08-16 21:29:00,63.0,50.0,30.14,SSW,196,4.0,7.0,63,0.00,,,0.00,weatherlink.com 1.10,2013-08-17 01:29:00,
2013-08-16 21:44:00,63.2,50.0,30.15,SSW,208,6.0,7.0,62,0.00,,,0.00,weatherlink.com 1.10,2013-08-17 01:44:00,
2013-08-16 21:59:00,63.5,49.0,30.15,SSW,208,7.0,8.0,60,0.00,,,0.00,weatherlink.com 1.10,2013-08-17 01:59:00,
2013-08-16 22:14:00,63.3,53.0,30.15,SSW,213,7.0,10.0,68,0.00,,,0.00,weatherlink.com 1.10,2013-08-17 02:14:00,
2013-08-16 22:29:00,63.1,52.0,30.15,SSW,198,4.0,10.0,68,0.00,,,0.00,weatherlink.com 1.10,2013-08-17 02:29:00,
2013-08-16 22:44:00,62.8,54.0,30.15,SSW,202,6.0,9.0,72,0.00,,,0.00,weatherlink.com 1.10,2013-08-17 02:44:00,
2013-08-16 22:59:00,63.0,53.0,30.15,SSW,198,6.0,8.0,71,0.00,,,0.00,weatherlink.com 1.10,2013-08-17 02:59:00,
2013-08-16 23:14:00,63.4,53.0,30.15,SSW,209,3.0,10.0,70,0.00,,,0.00,weatherlink.com 1.10,2013-08-17 03:14:00,
2013-08-16 23:29:00,63.8,53.0,30.16,SW,219,10.0,10.0,67,0.00,,,0.00,weatherlink.com 1.10,2013-08-17 03:29:00,
2013-08-16 23:44:00,64.0,54.0,30.16,SSW,192,3.0,12.0,69,0.00,,,0.00,weatherlink.com 1.10,2013-08-17 03:44:00,
2013-08-16 23:59:00,63.7,55.0,30.16,SSW,202,8.0,11.0,73,0.00,,,0.00,weatherlink.com 1.10,2013-08-17 03:59:00,